sensor_id;sensor_type;location;lat;lon;timestamp;pressure;altitude;pressure_sealevel;temperature;humidity
19783;BME280;10051;40.294;-3.754;2023-03-21T00:02:06;94357.50;;;14.68;46.88
19783;BME280;10051;40.294;-3.754;2023-03-21T00:04:32;94309.59;;;14.33;46.85
19783;BME280;10051;40.294;-3.754;2023-03-21T00:06:57;94284.97;;;14.09;47.00
19783;BME280;10051;40.294;-3.754;2023-03-21T00:09:23;94363.19;;;14.61;47.32
19783;BME280;10051;40.294;-3.754;2023-03-21T00:11:49;94323.75;;;14.37;47.09
19783;BME280;10051;40.294;-3.754;2023-03-21T00:14:14;94346.75;;;14.50;47.13
19783;BME280;10051;40.294;-3.754;2023-03-21T00:16:44;94297.66;;;14.21;47.27
19783;BME280;10051;40.294;-3.754;2023-03-21T00:19:15;94349.91;;;14.52;47.64
19783;BME280;10051;40.294;-3.754;2023-03-21T00:21:41;94342.66;;;14.44;47.44
19783;BME280;10051;40.294;-3.754;2023-03-21T00:24:07;94307.69;;;13.96;48.06
19783;BME280;10051;40.294;-3.754;2023-03-21T00:26:33;94331.41;;;13.74;49.88
19783;BME280;10051;40.294;-3.754;2023-03-21T00:28:59;94321.72;;;13.22;50.65
19783;BME280;10051;40.294;-3.754;2023-03-21T00:31:25;94300.69;;;13.03;51.04
19783;BME280;10051;40.294;-3.754;2023-03-21T00:33:51;94331.38;;;13.13;51.17
19783;BME280;10051;40.294;-3.754;2023-03-21T00:36:17;94343.69;;;13.36;51.10
19783;BME280;10051;40.294;-3.754;2023-03-21T00:38:42;94347.03;;;13.42;51.31
19783;BME280;10051;40.294;-3.754;2023-03-21T00:41:10;94335.22;;;13.53;50.26
19783;BME280;10051;40.294;-3.754;2023-03-21T00:43:36;94358.41;;;13.71;50.30
19783;BME280;10051;40.294;-3.754;2023-03-21T00:46:02;94356.66;;;13.66;50.28
19783;BME280;10051;40.294;-3.754;2023-03-21T00:48:28;94323.47;;;13.46;50.05
19783;BME280;10051;40.294;-3.754;2023-03-21T00:50:56;94361.16;;;13.65;50.47
19783;BME280;10051;40.294;-3.754;2023-03-21T00:53:23;94352.25;;;13.75;50.24
19783;BME280;10051;40.294;-3.754;2023-03-21T00:55:49;94344.72;;;13.68;50.18
19783;BME280;10051;40.294;-3.754;2023-03-21T00:58:15;94360.75;;;13.72;50.84
19783;BME280;10051;40.294;-3.754;2023-03-21T01:00:41;94308.69;;;13.45;50.23
19783;BME280;10051;40.294;-3.754;2023-03-21T01:03:10;94357.63;;;13.84;50.38
19783;BME280;10051;40.294;-3.754;2023-03-21T01:05:40;94329.84;;;13.73;50.00
19783;BME280;10051;40.294;-3.754;2023-03-21T01:08:25;94363.91;;;13.88;49.97
19783;BME280;10051;40.294;-3.754;2023-03-21T01:10:52;94361.13;;;13.93;49.59
19783;BME280;10051;40.294;-3.754;2023-03-21T01:13:21;94352.84;;;14.00;49.47
19783;BME280;10051;40.294;-3.754;2023-03-21T01:15:49;94348.63;;;13.99;49.05
19783;BME280;10051;40.294;-3.754;2023-03-21T01:18:17;94339.50;;;13.91;48.87
19783;BME280;10051;40.294;-3.754;2023-03-21T01:20:43;94345.19;;;13.85;49.24
19783;BME280;10051;40.294;-3.754;2023-03-21T01:23:11;94345.91;;;13.90;48.91
19783;BME280;10051;40.294;-3.754;2023-03-21T01:25:37;94339.22;;;13.79;48.81
19783;BME280;10051;40.294;-3.754;2023-03-21T01:28:04;94346.84;;;13.66;49.21
19783;BME280;10051;40.294;-3.754;2023-03-21T01:30:30;94355.88;;;13.65;49.91
19783;BME280;10051;40.294;-3.754;2023-03-21T01:32:56;94324.91;;;13.52;49.40
19783;BME280;10051;40.294;-3.754;2023-03-21T01:35:22;94342.84;;;13.22;50.27
19783;BME280;10051;40.294;-3.754;2023-03-21T01:37:48;94304.84;;;12.90;50.76
19783;BME280;10051;40.294;-3.754;2023-03-21T01:40:21;94338.97;;;13.33;50.42
19783;BME280;10051;40.294;-3.754;2023-03-21T01:42:48;94341.69;;;13.28;50.25
19783;BME280;10051;40.294;-3.754;2023-03-21T01:48:17;94329.75;;;13.31;50.81
19783;BME280;10051;40.294;-3.754;2023-03-21T01:50:44;94321.56;;;13.32;50.82
19783;BME280;10051;40.294;-3.754;2023-03-21T01:53:11;94332.53;;;13.39;50.84
19783;BME280;10051;40.294;-3.754;2023-03-21T01:55:38;94328.06;;;13.54;50.59
19783;BME280;10051;40.294;-3.754;2023-03-21T01:58:05;94300.34;;;13.37;50.95
19783;BME280;10051;40.294;-3.754;2023-03-21T02:00:33;94288.41;;;13.26;50.63
19783;BME280;10051;40.294;-3.754;2023-03-21T02:03:03;94319.38;;;13.53;50.77
19783;BME280;10051;40.294;-3.754;2023-03-21T02:05:55;94263.78;;;12.84;52.81
19783;BME280;10051;40.294;-3.754;2023-03-21T02:08:25;94303.91;;;12.67;53.20
19783;BME280;10051;40.294;-3.754;2023-03-21T02:10:51;94282.31;;;12.45;53.34
19783;BME280;10051;40.294;-3.754;2023-03-21T02:13:17;94296.84;;;12.62;53.89
19783;BME280;10051;40.294;-3.754;2023-03-21T02:26:59;94281.19;;;12.32;55.47
19783;BME280;10051;40.294;-3.754;2023-03-21T02:38:06;94268.72;;;12.38;55.06
19783;BME280;10051;40.294;-3.754;2023-03-21T02:40:41;94281.25;;;12.46;54.53
19783;BME280;10051;40.294;-3.754;2023-03-21T02:43:16;94275.66;;;12.67;54.33
19783;BME280;10051;40.294;-3.754;2023-03-21T02:45:52;94263.34;;;12.62;54.13
19783;BME280;10051;40.294;-3.754;2023-03-21T02:48:26;94269.22;;;12.73;53.97
19783;BME280;10051;40.294;-3.754;2023-03-21T02:50:56;94270.47;;;12.95;53.72
19783;BME280;10051;40.294;-3.754;2023-03-21T02:53:27;94246.97;;;12.79;53.40
19783;BME280;10051;40.294;-3.754;2023-03-21T02:55:55;94189.72;;;12.47;52.92
19783;BME280;10051;40.294;-3.754;2023-03-21T02:58:23;94263.78;;;12.51;54.80
19783;BME280;10051;40.294;-3.754;2023-03-21T03:00:51;94241.03;;;11.97;57.06
19783;BME280;10051;40.294;-3.754;2023-03-21T03:03:20;94265.53;;;12.22;56.38
19783;BME280;10051;40.294;-3.754;2023-03-21T03:05:54;94247.19;;;12.31;55.56
19783;BME280;10051;40.294;-3.754;2023-03-21T03:13:42;94266.13;;;12.52;54.90
19783;BME280;10051;40.294;-3.754;2023-03-21T03:18:54;94269.22;;;12.73;53.99
19783;BME280;10051;40.294;-3.754;2023-03-21T03:21:26;94264.97;;;12.58;54.30
19783;BME280;10051;40.294;-3.754;2023-03-21T03:26:28;94260.47;;;12.59;54.22
19783;BME280;10051;40.294;-3.754;2023-03-21T03:28:59;94231.69;;;12.10;55.01
19783;BME280;10051;40.294;-3.754;2023-03-21T03:31:32;94212.94;;;11.93;55.23
19783;BME280;10051;40.294;-3.754;2023-03-21T03:34:03;94260.59;;;12.54;54.24
19783;BME280;10051;40.294;-3.754;2023-03-21T03:36:36;94255.47;;;12.43;54.83
19783;BME280;10051;40.294;-3.754;2023-03-21T03:39:07;94238.09;;;12.04;55.55
19783;BME280;10051;40.294;-3.754;2023-03-21T03:42:01;94256.28;;;11.81;56.63
19783;BME280;10051;40.294;-3.754;2023-03-21T03:44:29;94243.16;;;11.76;56.34
19783;BME280;10051;40.294;-3.754;2023-03-21T03:47:19;94253.84;;;11.66;57.45
19783;BME280;10051;40.294;-3.754;2023-03-21T03:49:50;94225.94;;;11.45;57.97
19783;BME280;10051;40.294;-3.754;2023-03-21T03:52:28;94217.84;;;11.37;57.25
19783;BME280;10051;40.294;-3.754;2023-03-21T03:54:55;94222.13;;;11.52;55.76
19783;BME280;10051;40.294;-3.754;2023-03-21T03:57:24;94220.25;;;11.57;55.38
19783;BME280;10051;40.294;-3.754;2023-03-21T03:59:50;94193.94;;;11.33;54.46
19783;BME280;10051;40.294;-3.754;2023-03-21T04:02:17;94207.34;;;11.56;53.94
19783;BME280;10051;40.294;-3.754;2023-03-21T04:04:44;94188.59;;;11.19;54.34
19783;BME280;10051;40.294;-3.754;2023-03-21T04:07:11;94195.06;;;11.03;55.07
19783;BME280;10051;40.294;-3.754;2023-03-21T04:09:37;94077.06;;;10.18;54.84
19783;BME280;10051;40.294;-3.754;2023-03-21T04:12:02;94212.59;;;10.88;55.46
19783;BME280;10051;40.294;-3.754;2023-03-21T04:14:28;94235.16;;;10.94;56.21
19783;BME280;10051;40.294;-3.754;2023-03-21T04:16:54;94250.19;;;11.18;55.96
19783;BME280;10051;40.294;-3.754;2023-03-21T04:19:20;94230.25;;;11.12;55.31
19783;BME280;10051;40.294;-3.754;2023-03-21T04:21:45;94223.88;;;11.18;54.50
19783;BME280;10051;40.294;-3.754;2023-03-21T04:24:12;94264.16;;;11.38;55.04
19783;BME280;10051;40.294;-3.754;2023-03-21T04:26:39;94196.63;;;10.79;54.70
19783;BME280;10051;40.294;-3.754;2023-03-21T04:29:05;94206.44;;;10.74;55.09
19783;BME280;10051;40.294;-3.754;2023-03-21T04:31:31;94265.06;;;11.04;54.92
19783;BME280;10051;40.294;-3.754;2023-03-21T04:34:03;94209.69;;;10.60;54.82
19783;BME280;10051;40.294;-3.754;2023-03-21T04:36:34;94270.44;;;10.88;54.76
19783;BME280;10051;40.294;-3.754;2023-03-21T04:39:06;94255.00;;;11.11;53.91
19783;BME280;10051;40.294;-3.754;2023-03-21T04:41:43;94232.78;;;11.22;53.01
19783;BME280;10051;40.294;-3.754;2023-03-21T04:44:10;94248.88;;;11.15;53.45
19783;BME280;10051;40.294;-3.754;2023-03-21T04:46:37;94249.91;;;10.90;54.31
19783;BME280;10051;40.294;-3.754;2023-03-21T04:49:03;94231.78;;;10.59;55.37
19783;BME280;10051;40.294;-3.754;2023-03-21T04:51:29;94266.75;;;10.89;54.84
19783;BME280;10051;40.294;-3.754;2023-03-21T04:53:55;94239.94;;;10.87;54.91
19783;BME280;10051;40.294;-3.754;2023-03-21T04:56:25;94254.72;;;10.83;54.75
19783;BME280;10051;40.294;-3.754;2023-03-21T04:58:57;94249.59;;;10.67;54.98
19783;BME280;10051;40.294;-3.754;2023-03-21T05:01:24;94217.16;;;10.48;55.09
19783;BME280;10051;40.294;-3.754;2023-03-21T05:03:50;94239.50;;;10.50;55.50
19783;BME280;10051;40.294;-3.754;2023-03-21T05:06:16;94236.16;;;10.39;55.89
19783;BME280;10051;40.294;-3.754;2023-03-21T05:08:42;94275.97;;;10.57;56.18
19783;BME280;10051;40.294;-3.754;2023-03-21T05:11:08;94273.88;;;10.59;56.70
19783;BME280;10051;40.294;-3.754;2023-03-21T05:13:33;94267.63;;;10.50;57.38
19783;BME280;10051;40.294;-3.754;2023-03-21T05:15:59;94258.94;;;10.54;57.83
19783;BME280;10051;40.294;-3.754;2023-03-21T05:18:25;94261.06;;;10.47;58.78
19783;BME280;10051;40.294;-3.754;2023-03-21T05:20:52;94277.06;;;10.51;59.32
19783;BME280;10051;40.294;-3.754;2023-03-21T05:23:22;94266.63;;;10.40;59.67
19783;BME280;10051;40.294;-3.754;2023-03-21T05:25:49;94235.81;;;10.06;60.70
19783;BME280;10051;40.294;-3.754;2023-03-21T05:28:15;94267.84;;;10.14;60.56
19783;BME280;10051;40.294;-3.754;2023-03-21T05:30:44;94282.75;;;10.23;60.67
19783;BME280;10051;40.294;-3.754;2023-03-21T05:33:11;94285.16;;;10.20;61.30
19783;BME280;10051;40.294;-3.754;2023-03-21T05:35:37;94241.59;;;10.08;61.03
19783;BME280;10051;40.294;-3.754;2023-03-21T05:38:03;94256.78;;;10.17;60.96
19783;BME280;10051;40.294;-3.754;2023-03-21T05:40:29;94222.84;;;9.86;61.50
19783;BME280;10051;40.294;-3.754;2023-03-21T05:42:54;94287.50;;;10.21;61.79
19783;BME280;10051;40.294;-3.754;2023-03-21T05:45:20;94205.50;;;9.85;60.53
19783;BME280;10051;40.294;-3.754;2023-03-21T05:47:46;94288.16;;;10.43;59.32
19783;BME280;10051;40.294;-3.754;2023-03-21T05:50:12;94232.66;;;10.09;58.44
19783;BME280;10051;40.294;-3.754;2023-03-21T05:52:38;94238.72;;;10.10;58.39
19783;BME280;10051;40.294;-3.754;2023-03-21T05:55:04;94281.63;;;10.35;58.81
19783;BME280;10051;40.294;-3.754;2023-03-21T05:57:30;94293.91;;;10.05;60.11
19783;BME280;10051;40.294;-3.754;2023-03-21T05:59:59;94301.78;;;10.10;60.06
19783;BME280;10051;40.294;-3.754;2023-03-21T06:02:25;94242.56;;;9.78;60.01
19783;BME280;10051;40.294;-3.754;2023-03-21T06:04:51;94296.69;;;10.24;59.88
19783;BME280;10051;40.294;-3.754;2023-03-21T06:07:17;94299.81;;;10.31;58.93
19783;BME280;10051;40.294;-3.754;2023-03-21T06:09:42;94265.81;;;10.00;59.12
19783;BME280;10051;40.294;-3.754;2023-03-21T06:12:08;94285.72;;;10.11;59.69
19783;BME280;10051;40.294;-3.754;2023-03-21T06:14:34;94279.75;;;10.01;59.75
19783;BME280;10051;40.294;-3.754;2023-03-21T06:16:59;94195.47;;;9.47;60.44
19783;BME280;10051;40.294;-3.754;2023-03-21T06:19:25;94285.69;;;10.17;59.83
19783;BME280;10051;40.294;-3.754;2023-03-21T06:21:51;94231.81;;;9.74;59.44
19783;BME280;10051;40.294;-3.754;2023-03-21T06:24:16;94191.28;;;9.46;59.98
19783;BME280;10051;40.294;-3.754;2023-03-21T06:26:43;94292.28;;;10.14;59.29
19783;BME280;10051;40.294;-3.754;2023-03-21T06:29:09;94268.28;;;9.81;59.54
19783;BME280;10051;40.294;-3.754;2023-03-21T06:31:34;94297.47;;;9.74;59.99
19783;BME280;10051;40.294;-3.754;2023-03-21T06:34:00;94228.28;;;9.44;59.10
19783;BME280;10051;40.294;-3.754;2023-03-21T06:36:26;94256.59;;;9.52;59.27
19783;BME280;10051;40.294;-3.754;2023-03-21T06:38:52;94281.53;;;10.05;57.77
19783;BME280;10051;40.294;-3.754;2023-03-21T06:41:17;94260.88;;;9.88;58.08
19783;BME280;10051;40.294;-3.754;2023-03-21T06:43:44;94284.31;;;9.79;58.59
19783;BME280;10051;40.294;-3.754;2023-03-21T06:46:09;94305.06;;;9.76;59.58
19783;BME280;10051;40.294;-3.754;2023-03-21T06:48:35;94214.31;;;8.83;60.84
19783;BME280;10051;40.294;-3.754;2023-03-21T06:51:03;94309.84;;;9.63;61.49
19783;BME280;10051;40.294;-3.754;2023-03-21T06:53:29;94307.78;;;9.55;60.09
19783;BME280;10051;40.294;-3.754;2023-03-21T06:55:56;94317.22;;;9.56;61.05
19783;BME280;10051;40.294;-3.754;2023-03-21T06:58:22;94330.06;;;9.58;60.67
19783;BME280;10051;40.294;-3.754;2023-03-21T07:00:48;94330.09;;;9.52;59.76
19783;BME280;10051;40.294;-3.754;2023-03-21T07:03:14;94308.06;;;9.48;59.67
19783;BME280;10051;40.294;-3.754;2023-03-21T07:05:40;94288.69;;;9.39;59.24
19783;BME280;10051;40.294;-3.754;2023-03-21T07:08:07;94303.81;;;9.58;59.14
19783;BME280;10051;40.294;-3.754;2023-03-21T07:10:38;94334.56;;;10.18;57.45
19783;BME280;10051;40.294;-3.754;2023-03-21T07:13:04;94336.06;;;10.34;56.86
19783;BME280;10051;40.294;-3.754;2023-03-21T07:15:30;94331.84;;;10.33;57.03
19783;BME280;10051;40.294;-3.754;2023-03-21T07:17:56;94248.34;;;9.75;55.63
19783;BME280;10051;40.294;-3.754;2023-03-21T07:20:22;94250.13;;;9.90;55.43
19783;BME280;10051;40.294;-3.754;2023-03-21T07:22:47;94296.16;;;10.27;54.65
19783;BME280;10051;40.294;-3.754;2023-03-21T07:25:13;94355.19;;;10.85;54.35
19783;BME280;10051;40.294;-3.754;2023-03-21T07:27:39;94214.81;;;10.06;53.40
19783;BME280;10051;40.294;-3.754;2023-03-21T07:30:05;94336.69;;;10.95;52.50
19783;BME280;10051;40.294;-3.754;2023-03-21T07:32:32;94335.44;;;10.88;51.66
19783;BME280;10051;40.294;-3.754;2023-03-21T07:34:58;94359.59;;;10.95;51.98
19783;BME280;10051;40.294;-3.754;2023-03-21T07:37:25;94353.53;;;10.94;52.65
19783;BME280;10051;40.294;-3.754;2023-03-21T07:39:50;94333.00;;;10.62;53.44
19783;BME280;10051;40.294;-3.754;2023-03-21T07:42:16;94369.97;;;10.81;54.26
19783;BME280;10051;40.294;-3.754;2023-03-21T07:44:42;94350.28;;;10.73;54.96
19783;BME280;10051;40.294;-3.754;2023-03-21T07:47:07;94303.00;;;10.63;54.32
19783;BME280;10051;40.294;-3.754;2023-03-21T07:49:33;94372.19;;;11.57;52.19
19783;BME280;10051;40.294;-3.754;2023-03-21T07:52:00;94371.31;;;11.67;51.90
19783;BME280;10051;40.294;-3.754;2023-03-21T07:54:26;94288.66;;;11.38;52.52
19783;BME280;10051;40.294;-3.754;2023-03-21T07:56:53;94369.41;;;11.97;51.77
19783;BME280;10051;40.294;-3.754;2023-03-21T07:59:19;94364.81;;;12.08;51.94
19783;BME280;10051;40.294;-3.754;2023-03-21T08:01:45;94336.97;;;12.20;51.08
19783;BME280;10051;40.294;-3.754;2023-03-21T08:04:11;94375.75;;;12.77;50.23
19783;BME280;10051;40.294;-3.754;2023-03-21T08:06:36;94332.50;;;12.59;49.99
19783;BME280;10051;40.294;-3.754;2023-03-21T08:09:02;94352.00;;;12.77;49.15
19783;BME280;10051;40.294;-3.754;2023-03-21T08:11:28;94317.94;;;12.62;48.33
19783;BME280;10051;40.294;-3.754;2023-03-21T08:13:56;94302.69;;;12.20;48.81
19783;BME280;10051;40.294;-3.754;2023-03-21T08:16:22;94396.66;;;12.55;50.74
19783;BME280;10051;40.294;-3.754;2023-03-21T08:18:48;94381.91;;;12.54;50.17
19783;BME280;10051;40.294;-3.754;2023-03-21T08:21:13;94390.44;;;12.84;49.67
19783;BME280;10051;40.294;-3.754;2023-03-21T08:23:39;94378.75;;;12.90;49.31
19783;BME280;10051;40.294;-3.754;2023-03-21T08:26:05;94379.88;;;12.84;49.55
19783;BME280;10051;40.294;-3.754;2023-03-21T08:28:32;94388.78;;;13.07;48.73
19783;BME280;10051;40.294;-3.754;2023-03-21T08:30:58;94342.72;;;12.99;48.49
19783;BME280;10051;40.294;-3.754;2023-03-21T08:33:23;94386.88;;;13.27;48.29
19783;BME280;10051;40.294;-3.754;2023-03-21T08:35:49;94370.84;;;13.23;48.57
19783;BME280;10051;40.294;-3.754;2023-03-21T08:38:15;94303.25;;;12.75;48.06
19783;BME280;10051;40.294;-3.754;2023-03-21T08:40:41;94254.94;;;12.60;47.99
19783;BME280;10051;40.294;-3.754;2023-03-21T08:43:07;94378.47;;;13.24;50.05
19783;BME280;10051;40.294;-3.754;2023-03-21T08:45:32;94259.81;;;12.67;57.25
19783;BME280;10051;40.294;-3.754;2023-03-21T08:47:58;94262.66;;;12.38;51.67
19783;BME280;10051;40.294;-3.754;2023-03-21T08:50:25;94367.44;;;13.03;53.44
19783;BME280;10051;40.294;-3.754;2023-03-21T08:52:52;94351.72;;;12.98;54.61
19783;BME280;10051;40.294;-3.754;2023-03-21T08:55:18;94294.16;;;12.81;57.95
19783;BME280;10051;40.294;-3.754;2023-03-21T08:57:44;94324.47;;;13.17;51.93
19783;BME280;10051;40.294;-3.754;2023-03-21T09:00:14;94381.50;;;13.65;54.20
19783;BME280;10051;40.294;-3.754;2023-03-21T09:02:45;94391.91;;;13.89;53.17
19783;BME280;10051;40.294;-3.754;2023-03-21T09:05:13;94300.28;;;13.57;50.59
19783;BME280;10051;40.294;-3.754;2023-03-21T09:07:40;94382.78;;;14.23;51.62
19783;BME280;10051;40.294;-3.754;2023-03-21T09:10:08;94361.13;;;14.21;49.93
19783;BME280;10051;40.294;-3.754;2023-03-21T09:12:36;94351.16;;;14.18;47.50
19783;BME280;10051;40.294;-3.754;2023-03-21T09:15:03;94362.66;;;14.36;47.01
19783;BME280;10051;40.294;-3.754;2023-03-21T09:17:30;94372.03;;;14.56;46.84
19783;BME280;10051;40.294;-3.754;2023-03-21T09:19:58;94334.13;;;14.47;46.37
19783;BME280;10051;40.294;-3.754;2023-03-21T09:22:25;94336.56;;;14.57;46.24
19783;BME280;10051;40.294;-3.754;2023-03-21T09:24:52;94381.56;;;14.94;45.44
19783;BME280;10051;40.294;-3.754;2023-03-21T09:27:18;94381.94;;;14.87;46.12
19783;BME280;10051;40.294;-3.754;2023-03-21T09:29:48;94346.75;;;14.50;45.35
19783;BME280;10051;40.294;-3.754;2023-03-21T09:32:14;94332.06;;;14.44;44.61
19783;BME280;10051;40.294;-3.754;2023-03-21T09:34:40;94393.34;;;14.88;45.53
19783;BME280;10051;40.294;-3.754;2023-03-21T09:37:07;94356.44;;;14.92;46.17
19783;BME280;10051;40.294;-3.754;2023-03-21T09:39:38;94334.06;;;14.98;45.65
19783;BME280;10051;40.294;-3.754;2023-03-21T09:42:41;94395.69;;;15.67;44.35
19783;BME280;10051;40.294;-3.754;2023-03-21T09:45:21;94403.16;;;15.65;43.90
19783;BME280;10051;40.294;-3.754;2023-03-21T09:47:51;94364.00;;;15.53;43.46
19783;BME280;10051;40.294;-3.754;2023-03-21T09:50:24;94331.59;;;15.65;44.35
19783;BME280;10051;40.294;-3.754;2023-03-21T09:55:29;94315.59;;;15.79;42.45
19783;BME280;10051;40.294;-3.754;2023-03-21T10:00:37;94358.50;;;16.30;41.40
19783;BME280;10051;40.294;-3.754;2023-03-21T10:03:19;94364.25;;;16.23;41.63
19783;BME280;10051;40.294;-3.754;2023-03-21T10:05:49;94413.66;;;16.77;41.84
19783;BME280;10051;40.294;-3.754;2023-03-21T10:08:22;94342.44;;;16.44;39.84
19783;BME280;10051;40.294;-3.754;2023-03-21T10:10:57;94361.63;;;16.49;39.64
19783;BME280;10051;40.294;-3.754;2023-03-21T10:13:30;94419.97;;;17.07;40.40
19783;BME280;10051;40.294;-3.754;2023-03-21T10:16:00;94423.22;;;17.31;39.83
19783;BME280;10051;40.294;-3.754;2023-03-21T10:18:29;94380.25;;;17.11;38.82
19783;BME280;10051;40.294;-3.754;2023-03-21T10:20:55;94387.75;;;17.27;39.44
19783;BME280;10051;40.294;-3.754;2023-03-21T10:23:24;94375.25;;;17.18;39.11
19783;BME280;10051;40.294;-3.754;2023-03-21T10:25:57;94426.28;;;17.68;39.98
19783;BME280;10051;40.294;-3.754;2023-03-21T10:28:27;94315.84;;;17.32;39.75
19783;BME280;10051;40.294;-3.754;2023-03-21T10:30:55;94419.19;;;18.28;38.96
19783;BME280;10051;40.294;-3.754;2023-03-21T10:33:48;94409.69;;;18.49;38.49
19783;BME280;10051;40.294;-3.754;2023-03-21T10:36:15;94409.13;;;18.64;38.10
19783;BME280;10051;40.294;-3.754;2023-03-21T10:39:07;94402.09;;;18.81;37.18
19783;BME280;10051;40.294;-3.754;2023-03-21T10:41:39;94287.94;;;18.16;36.07
19783;BME280;10051;40.294;-3.754;2023-03-21T10:46:33;94362.31;;;18.33;36.28
19783;BME280;10051;40.294;-3.754;2023-03-21T10:49:00;94309.78;;;18.00;37.31
19783;BME280;10051;40.294;-3.754;2023-03-21T10:51:35;94302.19;;;18.11;36.81
19783;BME280;10051;40.294;-3.754;2023-03-21T10:54:07;94374.56;;;18.77;36.79
19783;BME280;10051;40.294;-3.754;2023-03-21T10:59:19;94362.22;;;18.51;35.87
19783;BME280;10051;40.294;-3.754;2023-03-21T11:01:49;94344.94;;;18.36;36.17
19783;BME280;10051;40.294;-3.754;2023-03-21T11:04:21;94367.09;;;18.70;36.51
19783;BME280;10051;40.294;-3.754;2023-03-21T11:06:57;94323.13;;;18.64;36.60
19783;BME280;10051;40.294;-3.754;2023-03-21T11:09:26;94360.53;;;19.10;36.66
19783;BME280;10051;40.294;-3.754;2023-03-21T11:12:17;94351.50;;;19.36;36.57
19783;BME280;10051;40.294;-3.754;2023-03-21T11:14:45;94364.56;;;19.62;36.23
19783;BME280;10051;40.294;-3.754;2023-03-21T11:17:21;94366.69;;;19.81;34.96
19783;BME280;10051;40.294;-3.754;2023-03-21T11:19:50;94364.63;;;19.99;34.74
19783;BME280;10051;40.294;-3.754;2023-03-21T11:22:18;94364.19;;;20.10;34.60
19783;BME280;10051;40.294;-3.754;2023-03-21T11:24:50;94343.41;;;20.03;33.55
19783;BME280;10051;40.294;-3.754;2023-03-21T11:27:16;94356.84;;;20.06;33.00
19783;BME280;10051;40.294;-3.754;2023-03-21T11:29:47;94342.72;;;19.94;33.04
19783;BME280;10051;40.294;-3.754;2023-03-21T11:32:30;94346.50;;;20.17;33.60
19783;BME280;10051;40.294;-3.754;2023-03-21T11:35:19;94352.94;;;20.41;33.02
19783;BME280;10051;40.294;-3.754;2023-03-21T11:37:50;94357.09;;;20.67;32.56
19783;BME280;10051;40.294;-3.754;2023-03-21T11:42:51;94330.59;;;20.74;32.76
19783;BME280;10051;40.294;-3.754;2023-03-21T11:45:23;94320.25;;;20.73;32.49
19783;BME280;10051;40.294;-3.754;2023-03-21T11:47:53;94306.03;;;20.69;33.13
19783;BME280;10051;40.294;-3.754;2023-03-21T12:04:41;94339.13;;;21.37;32.47
19783;BME280;10051;40.294;-3.754;2023-03-21T12:20:02;94325.44;;;22.03;30.38
19783;BME280;10051;40.294;-3.754;2023-03-21T12:22:52;94321.75;;;22.07;30.05
19783;BME280;10051;40.294;-3.754;2023-03-21T12:25:32;94311.88;;;22.11;28.92
19783;BME280;10051;40.294;-3.754;2023-03-21T12:28:57;94311.75;;;22.24;27.40
19783;BME280;10051;40.294;-3.754;2023-03-21T12:31:40;94319.47;;;22.25;28.17
19783;BME280;10051;40.294;-3.754;2023-03-21T12:34:23;94310.84;;;22.16;27.40
19783;BME280;10051;40.294;-3.754;2023-03-21T12:39:35;94299.03;;;22.37;29.18
19783;BME280;10051;40.294;-3.754;2023-03-21T12:44:44;94296.34;;;22.37;28.39
19783;BME280;10051;40.294;-3.754;2023-03-21T12:47:14;94292.47;;;22.50;28.95
19783;BME280;10051;40.294;-3.754;2023-03-21T12:52:25;94280.75;;;22.58;27.20
19783;BME280;10051;40.294;-3.754;2023-03-21T12:54:56;94245.63;;;22.44;27.23
19783;BME280;10051;40.294;-3.754;2023-03-21T13:02:30;94271.03;;;22.70;26.58
19783;BME280;10051;40.294;-3.754;2023-03-21T13:05:15;94261.00;;;22.86;26.51
19783;BME280;10051;40.294;-3.754;2023-03-21T13:07:50;94249.00;;;22.80;27.05
19783;BME280;10051;40.294;-3.754;2023-03-21T13:10:20;94236.53;;;22.68;26.95
19783;BME280;10051;40.294;-3.754;2023-03-21T13:20:52;94213.88;;;22.85;27.27
19783;BME280;10051;40.294;-3.754;2023-03-21T13:23:39;94234.91;;;23.07;27.40
19783;BME280;10051;40.294;-3.754;2023-03-21T13:26:10;94207.66;;;22.81;26.78
19783;BME280;10051;40.294;-3.754;2023-03-21T13:32:24;94221.63;;;22.91;28.51
19783;BME280;10051;40.294;-3.754;2023-03-21T13:35:00;94130.66;;;22.35;26.59
19783;BME280;10051;40.294;-3.754;2023-03-21T13:37:31;94157.38;;;22.51;26.84
19783;BME280;10051;40.294;-3.754;2023-03-21T13:40:00;94206.38;;;22.95;27.20
19783;BME280;10051;40.294;-3.754;2023-03-21T13:42:34;94212.59;;;22.99;27.93
19783;BME280;10051;40.294;-3.754;2023-03-21T13:45:00;94190.47;;;23.06;26.36
19783;BME280;10051;40.294;-3.754;2023-03-21T13:52:50;94170.69;;;22.91;27.75
19783;BME280;10051;40.294;-3.754;2023-03-21T13:55:29;94098.81;;;22.30;27.43
19783;BME280;10051;40.294;-3.754;2023-03-21T13:57:55;94139.03;;;22.53;27.87
19783;BME280;10051;40.294;-3.754;2023-03-21T14:00:26;94154.13;;;22.85;27.40
19783;BME280;10051;40.294;-3.754;2023-03-21T14:03:07;94170.53;;;23.03;26.72
19783;BME280;10051;40.294;-3.754;2023-03-21T14:05:33;94133.03;;;22.60;26.30
19783;BME280;10051;40.294;-3.754;2023-03-21T14:08:04;94171.53;;;22.95;26.95
19783;BME280;10051;40.294;-3.754;2023-03-21T14:10:34;94168.09;;;22.94;26.15
19783;BME280;10051;40.294;-3.754;2023-03-21T14:13:03;94164.38;;;22.79;25.93
19783;BME280;10051;40.294;-3.754;2023-03-21T14:15:43;94163.53;;;22.75;26.14
19783;BME280;10051;40.294;-3.754;2023-03-21T14:18:14;94082.78;;;22.34;26.20
19783;BME280;10051;40.294;-3.754;2023-03-21T14:20:40;94111.13;;;22.78;26.25
19783;BME280;10051;40.294;-3.754;2023-03-21T14:23:14;94119.00;;;22.90;25.67
19783;BME280;10051;40.294;-3.754;2023-03-21T14:25:41;94063.38;;;22.60;25.64
19783;BME280;10051;40.294;-3.754;2023-03-21T14:28:14;94144.66;;;23.14;25.44
19783;BME280;10051;40.294;-3.754;2023-03-21T14:30:41;94105.59;;;22.67;25.65
19783;BME280;10051;40.294;-3.754;2023-03-21T14:33:31;94134.00;;;22.95;24.62
19783;BME280;10051;40.294;-3.754;2023-03-21T14:36:01;94109.03;;;22.67;25.27
19783;BME280;10051;40.294;-3.754;2023-03-21T14:38:33;94141.63;;;22.93;23.91
19783;BME280;10051;40.294;-3.754;2023-03-21T14:41:00;94127.97;;;22.78;24.38
19783;BME280;10051;40.294;-3.754;2023-03-21T14:43:26;94097.84;;;22.62;24.47
19783;BME280;10051;40.294;-3.754;2023-03-21T14:45:54;94096.44;;;22.68;24.47